• Join FlightAware (Why Join?)
  • Login
  • US Flag 
09:15PM EDT


 

Airport Tracker/Info


-or-


 

Live Flight TrackerFlight Track Log ✈ CSN6815 ✈ 22-Sep-2013 ✈ ZWWW / URC - ZWTN / HTN

Flight Track Log - Related Links

Times and Time Zones

All times are in EDT time to prevent confusion due to time zone crossing. See the CSN6815 flight status page for this flight to view local times or setup timezone preferences in your user account.

Time Position Orientation Groundspeed Altitude Reporting Facility
EDT Latitude Longitude Course Direction KTS MPH feet Rate Location/Type
12:27AM 43.8285 87.3738 223° Southwest  Level Estimated
12:28AM 43.7497 87.2737 223° Southwest  Level Estimated
12:29AM 43.6709 87.1739 223° Southwest  Level Estimated
12:30AM 43.5920 87.0742 222° Southwest  Level Estimated
12:31AM 43.5130 86.9749 222° Southwest  Level Estimated
12:32AM 43.4339 86.8758 222° Southwest  Level Estimated
12:33AM 43.3547 86.7770 222° Southwest  Level Estimated
12:34AM 43.2755 86.6784 222° Southwest  Level Estimated
12:35AM 43.1962 86.5801 222° Southwest  Level Estimated
12:36AM 43.1167 86.4821 222° Southwest  Level Estimated
12:37AM 43.0372 86.3843 222° Southwest  Level Estimated
12:38AM 42.9576 86.2867 222° Southwest  Level Estimated
12:39AM 42.8780 86.1894 222° Southwest  Level Estimated
12:40AM 42.7982 86.0924 222° Southwest  Level Estimated
12:41AM 42.7184 85.9956 222° Southwest  Level Estimated
12:42AM 42.6385 85.8991 222° Southwest  Level Estimated
12:43AM 42.5585 85.8028 222° Southwest  Level Estimated
12:44AM 42.4784 85.7067 222° Southwest  Level Estimated
12:45AM 42.3982 85.6109 221° Southwest  Level Estimated
12:46AM 42.3180 85.5154 221° Southwest  Level Estimated
12:47AM 42.2377 85.4200 221° Southwest  Level Estimated
12:48AM 42.1573 85.3250 221° Southwest  Level Estimated
12:49AM 42.0768 85.2301 221° Southwest  Level Estimated
12:50AM 41.9963 85.1356 221° Southwest  Level Estimated
12:51AM 41.9156 85.0412 221° Southwest  Level Estimated
12:52AM 41.8349 84.9471 221° Southwest  Level Estimated
12:53AM 41.7542 84.8532 221° Southwest  Level Estimated
12:54AM 41.6733 84.7596 221° Southwest  Level Estimated
12:55AM 41.5924 84.6662 221° Southwest  Level Estimated
12:56AM 41.5114 84.5730 221° Southwest  Level Estimated
12:57AM 41.4303 84.4800 221° Southwest  Level Estimated
12:58AM 41.3491 84.3873 221° Southwest  Level Estimated
12:59AM 41.2679 84.2949 221° Southwest  Level Estimated
01:00AM 41.1866 84.2026 221° Southwest  Level Estimated
01:01AM 41.1052 84.1106 220° Southwest  Level Estimated
01:02AM 41.0238 84.0188 220° Southwest  Level Estimated
01:03AM 40.9422 83.9272 220° Southwest  Level Estimated
01:04AM 40.8606 83.8359 220° Southwest  Level Estimated
01:05AM 40.7790 83.7448 220° Southwest  Level Estimated
01:06AM 40.6972 83.6539 220° Southwest  Level Estimated
01:07AM 40.6154 83.5632 220° Southwest  Level Estimated
01:08AM 40.5335 83.4728 220° Southwest  Level Estimated
01:09AM 40.4516 83.3826 220° Southwest  Level Estimated
01:10AM 40.3696 83.2926 220° Southwest  Level Estimated
01:11AM 40.2875 83.2028 220° Southwest  Level Estimated
01:12AM 40.2053 83.1132 220° Southwest  Level Estimated
01:13AM 40.1231 83.0239 220° Southwest  Level Estimated
01:14AM 40.0408 82.9347 220° Southwest  Level Estimated
01:15AM 39.9584 82.8458 220° Southwest  Level Estimated
01:16AM 39.8760 82.7571 220° Southwest  Level Estimated
01:17AM 39.7935 82.6686 220° Southwest  Level Estimated
01:18AM 39.7109 82.5803 219° Southwest  Level Estimated
01:19AM 39.6283 82.4923 219° Southwest  Level Estimated
01:20AM 39.5456 82.4044 219° Southwest  Level Estimated
01:21AM 39.4628 82.3168 219° Southwest  Level Estimated
01:22AM 39.3800 82.2293 219° Southwest  Level Estimated
01:23AM 39.2971 82.1421 219° Southwest  Level Estimated
01:24AM 39.2141 82.0551 219° Southwest  Level Estimated
01:25AM 39.1311 81.9682 219° Southwest  Level Estimated
01:26AM 39.0480 81.8816 219° Southwest  Level Estimated
01:27AM 38.9648 81.7952 219° Southwest  Level Estimated
01:28AM 38.8816 81.7090 219° Southwest  Level Estimated
01:29AM 38.7983 81.6230 219° Southwest  Level Estimated
01:30AM 38.7150 81.5372 219° Southwest  Level Estimated
01:31AM 38.6316 81.4516 219° Southwest  Level Estimated
01:32AM 38.5481 81.3662 219° Southwest  Level Estimated
01:33AM 38.4646 81.2810 219° Southwest  Level Estimated
01:34AM 38.3810 81.1959 219° Southwest  Level Estimated
01:35AM 38.2973 81.1111 219° Southwest  Level Estimated
01:36AM 38.2136 81.0265 218° Southwest  Level Estimated
01:37AM 38.1298 80.9421 218° Southwest  Level Estimated
01:38AM 38.0460 80.8578 218° Southwest  Level Estimated
01:39AM 37.9621 80.7738 218° Southwest  Level Estimated
01:40AM 37.8781 80.6899 218° Southwest  Level Estimated
01:41AM 37.7941 80.6063 218° Southwest  Level Estimated
01:42AM 37.7100 80.5228 218° Southwest  Level Estimated
01:43AM 37.6259 80.4395 218° Southwest  Level Estimated
01:44AM 37.5417 80.3565 218° Southwest  Level Estimated
01:45AM 37.4574 80.2736 218° Southwest  Level Estimated
01:46AM 37.3731 80.1908 218° Southwest  Level Estimated
01:47AM 37.2888 80.1083 218° Southwest  Level Estimated
01:48AM 37.2043 80.0260 218° Southwest  Level Estimated
01:49AM 37.1199 79.9438 218° Southwest  Level Estimated
01:50AM 37.0385 79.8649 218° Southwest  Level Estimated
01:51AM 37.0385 79.8649 50° Northeast  Level Estimated
01:52AM 37.0385 79.8649 50° Northeast  Level Estimated
01:53AM 37.0385 79.8649 50° Northeast  Level Estimated
01:54AM 37.0385 79.8649 50° Northeast  Level Estimated
01:55AM 37.0385 79.8649 50° Northeast  Level Estimated
01:56AM 37.0385 79.8649 50° Northeast  Level Estimated
01:57AM 37.0385 79.8649 50° Northeast  Level Estimated